ESNG

Gällivare Airport

Gällivare, Sweden
METAR ESNG 201050Z AUTO 32008KT 9999 NCD M13/M16 Q1007
Observed Flight Rules
Jan-20 @ 10:50 UTC (21 minutes ago) Visual Flight Rules
Wind Visibility Clouds
320° at 8 knots 10,000+ meters
  • Clear skies
Temperatures Readings
Current -13°C / 9°F
Dewpoint -16°C / 3°F
Humidity 78%
Altimeter 29.73" Hg
Pressure 1006.92 hPa
Elevation 310
METAR ESNG 201050Z AUTO 32008KT 9999 NCD M13/M16 Q1007
Observed Flight Rules
Jan-20 @ 10:50 UTC
(21 minutes ago)
VFR
Wind Visibility
320° at 8 knots 10,000+ meters
Clouds
  • Clear skies
Temperature Dewpoint
-13°C / 9°F -16°C / 3°F
Humidity Altimeter Pressure
78% 29.73" Hg 1006.92 hPa